createdAt,value
2022-12-14T00:01:45.142Z,49.99
2022-12-14T00:04:16.600Z,50.16
2022-12-14T00:06:43.651Z,50.43
2022-12-14T00:09:10.699Z,50.48
2022-12-14T00:11:37.890Z,50.48
2022-12-14T00:14:05.719Z,50.09
2022-12-14T00:16:35.277Z,49.96
2022-12-14T00:19:04.490Z,50.45
2022-12-14T00:21:31.627Z,50.61
2022-12-14T00:23:59.744Z,50.77
2022-12-14T00:26:31.457Z,50.81
2022-12-14T00:29:01.210Z,51.06
2022-12-14T00:31:29.595Z,50.95
2022-12-14T00:33:56.787Z,51.02
2022-12-14T00:36:24.410Z,51.48
2022-12-14T00:38:51.574Z,51.96
2022-12-14T00:41:18.936Z,51.78
2022-12-14T00:43:49.163Z,52.00
2022-12-14T00:46:17.877Z,52.03
2022-12-14T00:48:46.206Z,52.02
2022-12-14T00:51:15.096Z,51.84
2022-12-14T00:53:44.189Z,52.22
2022-12-14T00:56:11.628Z,51.82
2022-12-14T00:58:38.701Z,51.54
2022-12-14T01:01:12.376Z,51.43
2022-12-14T01:03:39.750Z,51.40
2022-12-14T01:06:14.036Z,51.42
2022-12-14T01:08:41.288Z,51.41
2022-12-14T01:11:10.223Z,51.30
2022-12-14T01:13:39.283Z,51.32
2022-12-14T01:16:15.027Z,51.20
2022-12-14T01:18:43.725Z,51.37
2022-12-14T01:21:20.832Z,51.80
2022-12-14T01:23:52.409Z,51.50
2022-12-14T01:26:20.423Z,50.96
2022-12-14T01:28:49.047Z,51.03
2022-12-14T01:31:19.666Z,50.67
2022-12-14T01:33:48.155Z,50.83
2022-12-14T01:36:19.252Z,50.86
2022-12-14T01:38:47.161Z,51.06
2022-12-14T01:41:44.281Z,51.34
2022-12-14T01:44:11.311Z,51.33
2022-12-14T01:46:42.032Z,51.37
2022-12-14T01:49:15.244Z,51.26
2022-12-14T01:51:50.349Z,51.62
2022-12-14T01:54:17.478Z,52.44
2022-12-14T01:56:46.569Z,52.68
2022-12-14T01:59:25.902Z,52.87
2022-12-14T02:01:54.238Z,52.76
2022-12-14T02:04:21.923Z,52.51
2022-12-14T02:06:54.121Z,52.78
2022-12-14T02:09:31.815Z,52.36
2022-12-14T02:12:14.209Z,52.43
2022-12-14T02:14:41.924Z,52.36
2022-12-14T02:17:11.514Z,51.96
2022-12-14T02:19:40.060Z,51.33
2022-12-14T02:22:25.184Z,50.24
2022-12-14T02:25:23.291Z,51.04
2022-12-14T02:28:17.327Z,51.13
2022-12-14T02:30:58.657Z,50.96
2022-12-14T02:34:39.933Z,50.80
2022-12-14T02:37:49.966Z,50.89
2022-12-14T02:40:28.635Z,51.10
2022-12-14T02:44:00.386Z,51.56
2022-12-14T02:46:52.225Z,51.41
2022-12-14T02:49:53.448Z,51.59
2022-12-14T02:52:52.797Z,51.90
2022-12-14T02:55:39.174Z,51.53
2022-12-14T02:58:17.979Z,51.38
2022-12-14T03:00:45.539Z,51.19
2022-12-14T03:03:12.752Z,51.07
2022-12-14T03:05:39.922Z,51.28
2022-12-14T03:08:12.494Z,51.30
2022-12-14T03:10:53.195Z,50.90
2022-12-14T03:13:54.321Z,50.83
2022-12-14T03:16:33.711Z,50.68
2022-12-14T03:19:15.051Z,50.93
2022-12-14T03:21:50.996Z,50.83
2022-12-14T03:24:27.429Z,50.51
2022-12-14T03:27:05.615Z,50.62
2022-12-14T03:29:41.357Z,50.68
2022-12-14T03:32:23.044Z,50.50
2022-12-14T03:34:59.611Z,50.60
2022-12-14T03:37:58.929Z,50.75
2022-12-14T03:40:42.758Z,50.97
2022-12-14T03:43:17.582Z,50.76
2022-12-14T03:45:52.850Z,50.75
2022-12-14T03:48:38.081Z,50.67
2022-12-14T03:51:18.503Z,50.67
2022-12-14T03:54:21.936Z,50.70
2022-12-14T03:57:08.048Z,50.34
2022-12-14T03:59:54.194Z,50.83
2022-12-14T04:02:40.795Z,50.52
2022-12-14T04:05:41.760Z,50.14
2022-12-14T04:09:05.825Z,50.42
2022-12-14T04:12:02.408Z,50.45
2022-12-14T04:14:54.730Z,50.42
2022-12-14T04:17:48.620Z,50.30
2022-12-14T04:20:46.248Z,50.68
2022-12-14T04:23:41.868Z,50.61
2022-12-14T04:26:13.841Z,50.25
2022-12-14T04:29:09.492Z,50.27
2022-12-14T04:31:39.682Z,50.23
2022-12-14T04:34:10.744Z,50.33
2022-12-14T04:36:42.330Z,50.38
2022-12-14T04:39:31.548Z,50.46
2022-12-14T04:42:03.013Z,50.61
2022-12-14T04:44:37.947Z,50.48
2022-12-14T04:47:09.964Z,50.67
2022-12-14T04:49:53.476Z,50.65
2022-12-14T04:52:33.237Z,50.39
2022-12-14T04:55:21.897Z,50.44
2022-12-14T04:57:59.304Z,50.23
2022-12-14T05:00:27.528Z,50.07
2022-12-14T05:03:17.200Z,50.25
2022-12-14T05:06:06.514Z,50.12
2022-12-14T05:09:08.893Z,50.30
2022-12-14T05:11:55.671Z,50.08
2022-12-14T05:14:49.803Z,50.28
2022-12-14T05:17:17.344Z,50.28
2022-12-14T05:19:49.856Z,50.08
2022-12-14T05:22:18.430Z,49.85
2022-12-14T05:24:45.461Z,50.06
2022-12-14T05:27:12.955Z,50.08
2022-12-14T05:29:40.123Z,50.23
2022-12-14T05:32:09.932Z,50.37
2022-12-14T05:34:37.004Z,50.23
2022-12-14T05:37:04.237Z,50.33
2022-12-14T05:39:31.439Z,49.72
2022-12-14T05:41:58.626Z,50.12
2022-12-14T05:44:25.968Z,49.88
2022-12-14T05:46:53.989Z,49.99
2022-12-14T05:49:21.158Z,50.01
2022-12-14T05:51:49.445Z,50.03
2022-12-14T05:54:16.737Z,50.05
2022-12-14T05:56:44.001Z,50.05
2022-12-14T05:59:15.606Z,49.87
2022-12-14T06:01:44.251Z,49.81
2022-12-14T06:04:15.799Z,49.98
2022-12-14T06:06:43.426Z,49.81
2022-12-14T06:09:15.715Z,49.62
2022-12-14T06:11:43.813Z,49.92
2022-12-14T06:14:11.826Z,50.18
2022-12-14T06:16:44.806Z,50.04
2022-12-14T06:19:13.555Z,49.81
2022-12-14T06:21:42.752Z,50.17
2022-12-14T06:24:12.501Z,50.30
2022-12-14T06:26:42.807Z,50.26
2022-12-14T06:29:21.116Z,50.03
2022-12-14T06:31:49.509Z,50.07
2022-12-14T06:34:18.031Z,49.79
2022-12-14T06:36:47.032Z,49.72
2022-12-14T06:39:16.814Z,49.81
2022-12-14T06:41:44.501Z,49.49
2022-12-14T06:44:14.502Z,49.61
2022-12-14T06:46:42.211Z,49.34
2022-12-14T06:49:16.440Z,49.25
2022-12-14T06:51:44.032Z,49.02
2022-12-14T06:54:12.712Z,49.32
2022-12-14T06:56:41.608Z,48.88
2022-12-14T06:59:09.300Z,49.53
2022-12-14T07:01:38.362Z,49.20
2022-12-14T07:04:06.761Z,49.50
2022-12-14T07:06:38.497Z,49.43
2022-12-14T07:09:08.035Z,49.15
2022-12-14T07:11:35.292Z,49.44
2022-12-14T07:14:06.166Z,49.38
2022-12-14T07:16:35.744Z,49.12
2022-12-14T07:19:03.980Z,49.40
2022-12-14T07:21:31.133Z,49.30
2022-12-14T07:24:01.299Z,48.96
2022-12-14T07:26:29.234Z,49.03
2022-12-14T07:29:00.617Z,49.38
2022-12-14T07:31:29.742Z,49.42
2022-12-14T07:34:00.423Z,49.09
2022-12-14T07:36:29.893Z,48.89
2022-12-14T07:38:57.568Z,48.67
2022-12-14T07:41:31.257Z,48.75
2022-12-14T07:44:00.932Z,48.67
2022-12-14T07:46:30.711Z,48.37
2022-12-14T07:48:59.255Z,48.37
2022-12-14T07:51:36.257Z,48.02
2022-12-14T07:54:05.964Z,47.86
2022-12-14T07:56:37.027Z,47.59
2022-12-14T07:59:06.720Z,47.95
2022-12-14T08:01:36.394Z,47.66
2022-12-14T08:04:10.576Z,46.79
2022-12-14T08:06:38.907Z,46.85
2022-12-14T08:09:07.660Z,46.98
2022-12-14T08:11:35.349Z,47.12
2022-12-14T08:14:10.941Z,46.85
2022-12-14T08:16:38.183Z,47.10
2022-12-14T08:19:05.507Z,47.05
2022-12-14T08:21:33.025Z,47.10
2022-12-14T08:24:00.451Z,46.65
2022-12-14T08:26:34.893Z,46.96
2022-12-14T08:29:03.769Z,47.35
2022-12-14T08:31:32.062Z,46.78
2022-12-14T08:34:01.395Z,47.02
2022-12-14T08:36:32.860Z,46.92
2022-12-14T08:39:09.998Z,47.04
2022-12-14T08:41:37.368Z,47.44
2022-12-14T08:44:05.125Z,46.88
2022-12-14T08:46:34.925Z,46.97
2022-12-14T08:49:02.258Z,46.55
2022-12-14T08:51:29.905Z,46.20
2022-12-14T08:53:58.376Z,45.87
2022-12-14T08:56:28.199Z,45.45
2022-12-14T08:58:56.627Z,45.06
2022-12-14T09:01:32.854Z,44.80
2022-12-14T09:04:08.012Z,44.64
2022-12-14T09:06:39.105Z,44.82
2022-12-14T09:09:15.605Z,44.67
2022-12-14T09:11:44.556Z,44.31
2022-12-14T09:14:12.402Z,44.24
2022-12-14T09:16:40.384Z,44.17
2022-12-14T09:19:07.736Z,43.92
2022-12-14T09:21:35.076Z,44.11
2022-12-14T09:24:02.184Z,43.53
2022-12-14T09:26:29.978Z,43.72
2022-12-14T09:28:58.255Z,43.70
2022-12-14T09:31:28.011Z,43.37
2022-12-14T09:33:56.250Z,43.41
2022-12-14T09:36:28.448Z,43.52
2022-12-14T09:38:57.858Z,43.38
2022-12-14T09:41:36.487Z,42.76
2022-12-14T09:44:27.993Z,42.64
2022-12-14T09:47:47.037Z,42.11
2022-12-14T09:50:20.769Z,42.07
2022-12-14T09:52:53.390Z,41.96
2022-12-14T09:55:22.962Z,42.05
2022-12-14T09:58:23.578Z,41.69
2022-12-14T10:01:43.564Z,41.62
2022-12-14T10:04:16.592Z,41.60
2022-12-14T10:07:06.050Z,40.79
2022-12-14T10:10:02.714Z,41.06
2022-12-14T10:13:01.917Z,40.59
2022-12-14T10:15:53.690Z,40.13
2022-12-14T10:19:01.979Z,40.43
2022-12-14T10:21:47.396Z,40.75
2022-12-14T10:24:23.231Z,40.86
2022-12-14T10:26:55.810Z,40.88
2022-12-14T10:29:25.942Z,40.66
2022-12-14T10:32:02.401Z,40.64
2022-12-14T10:34:31.487Z,40.54
2022-12-14T10:37:25.811Z,41.13
2022-12-14T10:40:19.769Z,40.84
2022-12-14T10:43:21.046Z,41.48
2022-12-14T10:46:19.362Z,41.36
2022-12-14T10:49:32.953Z,42.00
2022-12-14T10:52:12.418Z,41.59
2022-12-14T10:54:47.093Z,41.85
2022-12-14T10:57:20.113Z,41.76
2022-12-14T11:00:07.339Z,41.65
2022-12-14T11:02:41.266Z,42.05
2022-12-14T11:05:41.488Z,42.05
2022-12-14T11:08:09.347Z,41.65
2022-12-14T11:10:39.751Z,41.21
2022-12-14T11:13:19.880Z,41.38
2022-12-14T11:15:51.032Z,41.46
2022-12-14T11:18:18.180Z,41.59
2022-12-14T11:20:52.735Z,41.91
2022-12-14T11:23:29.969Z,41.69
2022-12-14T11:26:03.821Z,41.82
2022-12-14T11:28:50.483Z,42.20
2022-12-14T11:31:20.625Z,42.18
2022-12-14T11:33:51.093Z,42.48
2022-12-14T11:36:38.805Z,42.94
2022-12-14T11:39:20.880Z,42.41
2022-12-14T11:42:01.382Z,42.07
2022-12-14T11:44:36.443Z,42.22
2022-12-14T11:47:13.699Z,42.42
2022-12-14T11:49:41.057Z,42.16
2022-12-14T11:52:46.092Z,42.03
2022-12-14T11:55:26.253Z,41.96
2022-12-14T11:57:57.907Z,41.89
2022-12-14T12:00:47.738Z,42.24
2022-12-14T12:03:26.446Z,41.90
2022-12-14T12:05:59.861Z,41.61
2022-12-14T12:08:30.112Z,41.68
2022-12-14T12:11:02.543Z,42.22
2022-12-14T12:13:41.091Z,41.97
2022-12-14T12:16:14.884Z,41.83
2022-12-14T12:18:56.319Z,42.12
2022-12-14T12:21:30.248Z,42.45
2022-12-14T12:24:26.348Z,42.29
2022-12-14T12:26:58.737Z,42.43
2022-12-14T12:29:45.580Z,42.79
2022-12-14T12:32:50.518Z,42.56
2022-12-14T12:35:36.774Z,42.86
2022-12-14T12:38:13.894Z,42.83
2022-12-14T12:41:01.268Z,42.90
2022-12-14T12:43:42.448Z,42.73
2022-12-14T12:46:18.617Z,43.37
2022-12-14T12:48:53.850Z,43.51
2022-12-14T12:51:27.168Z,43.20
2022-12-14T12:54:06.293Z,43.64
2022-12-14T12:56:48.197Z,43.84
2022-12-14T12:59:35.627Z,43.48
2022-12-14T13:02:30.998Z,43.59
2022-12-14T13:05:29.042Z,43.39
2022-12-14T13:07:57.464Z,43.59
2022-12-14T13:10:42.047Z,43.50
2022-12-14T13:13:22.806Z,43.90
2022-12-14T13:15:54.209Z,43.79
2022-12-14T13:18:49.253Z,43.86
2022-12-14T13:21:35.267Z,43.94
2022-12-14T13:24:18.010Z,44.11
2022-12-14T13:27:17.671Z,43.95
2022-12-14T13:29:47.833Z,43.85
2022-12-14T13:32:45.564Z,44.03
2022-12-14T13:35:36.863Z,44.00
2022-12-14T13:38:35.235Z,43.71
2022-12-14T13:41:50.778Z,43.79
2022-12-14T13:44:41.989Z,43.39
2022-12-14T13:47:20.282Z,43.68
2022-12-14T13:50:34.765Z,43.78
2022-12-14T13:52:48.142Z,43.74
2022-12-14T13:55:39.323Z,43.98
2022-12-14T13:58:35.836Z,43.97
2022-12-14T14:01:36.710Z,43.73
2022-12-14T14:04:16.104Z,43.89
2022-12-14T14:06:45.387Z,43.88
2022-12-14T14:09:33.591Z,44.07
2022-12-14T14:12:04.471Z,44.35
2022-12-14T14:14:47.848Z,44.15
2022-12-14T14:17:41.914Z,44.49
2022-12-14T14:20:31.008Z,44.38
2022-12-14T14:23:16.275Z,44.72
2022-12-14T14:25:51.915Z,44.73
2022-12-14T14:28:23.216Z,44.43
2022-12-14T14:30:59.781Z,44.73
2022-12-14T14:33:48.396Z,44.48
2022-12-14T14:36:35.233Z,44.70
2022-12-14T14:42:25.830Z,44.26
2022-12-14T14:44:57.440Z,44.87
2022-12-14T14:47:35.971Z,44.95
2022-12-14T14:50:22.140Z,45.15
2022-12-14T14:53:18.374Z,44.65
2022-12-14T14:56:00.703Z,44.75
2022-12-14T14:58:38.428Z,44.49
2022-12-14T15:01:16.138Z,44.64
2022-12-14T15:04:06.662Z,44.70
2022-12-14T15:06:41.112Z,44.42
2022-12-14T15:09:30.996Z,44.27
2022-12-14T15:12:07.066Z,44.55
2022-12-14T15:14:48.219Z,44.91
2022-12-14T15:17:24.424Z,44.87
2022-12-14T15:19:59.916Z,44.56
2022-12-14T15:22:43.609Z,44.46
2022-12-14T15:25:23.774Z,44.79
2022-12-14T15:27:52.177Z,45.16
2022-12-14T15:30:27.765Z,45.16
2022-12-14T15:33:01.749Z,45.39
2022-12-14T15:35:42.795Z,45.57
2022-12-14T15:38:20.628Z,45.30
2022-12-14T15:40:59.965Z,45.43
2022-12-14T15:43:28.334Z,45.58
2022-12-14T15:46:04.627Z,45.68
2022-12-14T15:48:35.063Z,46.48
2022-12-14T15:51:06.556Z,46.72
2022-12-14T15:53:49.854Z,46.72
2022-12-14T15:56:32.853Z,46.34
2022-12-14T15:59:04.287Z,46.45
2022-12-14T16:01:54.406Z,46.40
2022-12-14T16:04:27.890Z,46.51
2022-12-14T16:07:09.152Z,46.47
2022-12-14T16:09:50.128Z,46.46
2022-12-14T16:12:45.420Z,46.68
2022-12-14T16:15:29.495Z,46.74
2022-12-14T16:18:02.230Z,46.88
2022-12-14T16:20:34.475Z,46.76
2022-12-14T16:23:13.140Z,46.65
2022-12-14T16:26:15.631Z,46.50
2022-12-14T16:28:42.797Z,46.79
2022-12-14T16:31:22.957Z,47.12
2022-12-14T16:34:15.015Z,47.37
2022-12-14T16:36:48.207Z,47.19
2022-12-14T16:39:24.249Z,47.74
2022-12-14T16:42:02.777Z,47.64
2022-12-14T16:44:32.368Z,47.93
2022-12-14T16:47:05.300Z,47.90
2022-12-14T16:49:41.406Z,48.01
2022-12-14T16:52:30.500Z,47.93
2022-12-14T16:55:17.105Z,48.29
2022-12-14T16:57:58.571Z,48.70
2022-12-14T17:00:36.205Z,48.70
2022-12-14T17:03:17.645Z,48.36
2022-12-14T17:05:54.435Z,48.35
2022-12-14T17:08:21.789Z,48.67
2022-12-14T17:10:49.069Z,48.79
2022-12-14T17:13:16.312Z,48.78
2022-12-14T17:16:01.887Z,48.69
2022-12-14T17:18:39.724Z,48.60
2022-12-14T17:21:10.669Z,48.87
2022-12-14T17:23:40.509Z,49.25
2022-12-14T17:26:29.373Z,49.58
2022-12-14T17:28:57.258Z,49.40
2022-12-14T17:31:27.315Z,49.36
2022-12-14T17:33:56.679Z,49.03
2022-12-14T17:36:24.518Z,48.86
2022-12-14T17:38:52.187Z,49.09
2022-12-14T17:41:26.686Z,49.18
2022-12-14T17:43:58.845Z,49.25
2022-12-14T17:46:26.739Z,49.47
2022-12-14T17:48:54.047Z,49.37
2022-12-14T17:51:30.093Z,49.60
2022-12-14T17:53:59.547Z,49.72
2022-12-14T17:56:26.775Z,49.63
2022-12-14T17:58:53.885Z,49.58
2022-12-14T18:01:25.731Z,49.79
2022-12-14T18:03:53.153Z,49.73
2022-12-14T18:06:20.245Z,50.02
2022-12-14T18:08:48.951Z,50.32
2022-12-14T18:11:22.021Z,50.35
2022-12-14T18:13:49.653Z,50.57
2022-12-14T18:16:22.100Z,50.71
2022-12-14T18:18:49.784Z,50.79
2022-12-14T18:21:29.545Z,50.54
2022-12-14T18:23:57.042Z,50.92
2022-12-14T18:26:26.977Z,51.06
2022-12-14T18:28:55.455Z,51.09
2022-12-14T18:31:36.084Z,51.04
2022-12-14T18:34:04.804Z,50.70
2022-12-14T18:36:32.084Z,50.96
2022-12-14T18:38:59.510Z,51.05
2022-12-14T18:41:27.594Z,51.10
2022-12-14T18:43:55.944Z,51.13
2022-12-14T18:46:24.250Z,50.59
2022-12-14T18:48:51.448Z,50.77
2022-12-14T18:51:23.571Z,50.99
2022-12-14T18:53:51.567Z,50.61
2022-12-14T18:56:19.663Z,51.24
2022-12-14T18:58:47.533Z,51.21
2022-12-14T19:01:19.484Z,50.78
2022-12-14T19:03:47.535Z,50.79
2022-12-14T19:06:43.630Z,50.79
2022-12-14T19:09:05.331Z,50.79
2022-12-14T19:11:38.973Z,51.05
2022-12-14T19:14:06.915Z,51.04
2022-12-14T19:16:34.378Z,51.51
2022-12-14T19:19:01.634Z,51.46
2022-12-14T19:21:29.805Z,51.60
2022-12-14T19:23:59.510Z,51.50
2022-12-14T19:26:28.595Z,50.97
2022-12-14T19:28:56.262Z,50.72
2022-12-14T19:31:23.510Z,50.50
2022-12-14T19:33:50.977Z,50.17
2022-12-14T19:36:18.371Z,50.30
2022-12-14T19:38:49.595Z,50.13
2022-12-14T19:41:20.399Z,50.32
2022-12-14T19:43:48.431Z,49.92
2022-12-14T19:46:16.424Z,50.21
2022-12-14T19:48:44.354Z,50.02
2022-12-14T19:51:13.314Z,50.19
2022-12-14T19:53:42.940Z,49.96
2022-12-14T19:56:10.929Z,50.23
2022-12-14T19:58:38.161Z,50.07
2022-12-14T20:01:10.924Z,49.93
2022-12-14T20:03:41.980Z,49.79
2022-12-14T20:06:10.143Z,49.69
2022-12-14T20:08:37.689Z,49.69
2022-12-14T20:11:10.993Z,50.24
2022-12-14T20:13:38.672Z,50.41
2022-12-14T20:16:06.279Z,50.47
2022-12-14T20:18:33.782Z,50.39
2022-12-14T20:21:06.869Z,50.20
2022-12-14T20:23:36.271Z,50.47
2022-12-14T20:26:14.887Z,50.52
2022-12-14T20:28:42.474Z,50.75
2022-12-14T20:31:15.084Z,50.79
2022-12-14T20:33:45.116Z,51.16
2022-12-14T20:36:13.550Z,51.17
2022-12-14T20:38:41.091Z,51.73
2022-12-14T20:41:14.520Z,51.69
2022-12-14T20:43:44.912Z,51.85
2022-12-14T20:46:34.462Z,51.66
2022-12-14T20:49:09.398Z,51.73
2022-12-14T20:51:39.353Z,52.08
2022-12-14T20:54:10.882Z,52.38
2022-12-14T20:56:39.058Z,52.61
2022-12-14T20:59:07.911Z,52.98
2022-12-14T21:01:38.162Z,52.89
2022-12-14T21:04:07.463Z,52.67
2022-12-14T21:06:40.676Z,53.37
2022-12-14T21:09:12.105Z,54.01
2022-12-14T21:12:08.014Z,54.40
2022-12-14T21:14:44.772Z,54.64
2022-12-14T21:17:12.016Z,54.95
2022-12-14T21:19:40.080Z,55.49
2022-12-14T21:22:12.585Z,55.44
2022-12-14T21:27:30.273Z,55.24
2022-12-14T21:29:57.401Z,55.22
2022-12-14T21:32:24.585Z,55.08
2022-12-14T21:34:52.086Z,55.05
2022-12-14T21:37:20.372Z,55.31
2022-12-14T21:39:54.535Z,55.46
2022-12-14T21:42:25.971Z,55.84
2022-12-14T21:44:54.444Z,56.09
2022-12-14T21:47:28.400Z,56.13
2022-12-14T21:49:56.486Z,56.41
2022-12-14T21:52:27.251Z,56.80
2022-12-14T21:54:54.784Z,56.54
2022-12-14T21:57:49.823Z,56.27
2022-12-14T22:00:18.284Z,56.38
2022-12-14T22:02:45.648Z,56.28
2022-12-14T22:05:13.218Z,56.41
2022-12-14T22:07:40.485Z,56.56
2022-12-14T22:10:08.302Z,56.96
2022-12-14T22:12:35.501Z,56.94
2022-12-14T22:15:02.719Z,56.90
2022-12-14T22:17:29.787Z,56.79
2022-12-14T22:19:56.865Z,56.78
2022-12-14T22:22:23.963Z,56.87
2022-12-14T22:24:51.379Z,56.84
2022-12-14T22:27:19.681Z,56.56
2022-12-14T22:29:46.927Z,56.98
2022-12-14T22:32:14.983Z,57.00
2022-12-14T22:34:42.374Z,56.87
2022-12-14T22:37:09.880Z,56.82
2022-12-14T22:39:37.020Z,56.68
2022-12-14T22:42:04.232Z,56.89
2022-12-14T22:44:31.261Z,56.55
2022-12-14T22:46:58.445Z,56.98
2022-12-14T22:49:25.483Z,56.91
2022-12-14T22:51:52.704Z,57.14
2022-12-14T22:54:27.912Z,57.30
2022-12-14T22:56:58.386Z,56.96
2022-12-14T22:59:43.459Z,56.67
2022-12-14T23:02:10.800Z,56.70
2022-12-14T23:04:39.096Z,56.95
2022-12-14T23:07:06.679Z,56.81
2022-12-14T23:09:53.205Z,56.96
2022-12-14T23:12:39.152Z,56.92
2022-12-14T23:15:24.994Z,57.04
2022-12-14T23:18:18.957Z,57.08
2022-12-14T23:21:04.463Z,56.95
2022-12-14T23:23:50.352Z,56.95
2022-12-14T23:26:36.334Z,56.90
2022-12-14T23:29:22.270Z,56.60
2022-12-14T23:32:07.995Z,56.63
2022-12-14T23:34:53.586Z,56.20
2022-12-14T23:37:38.985Z,56.09
2022-12-14T23:40:25.582Z,56.27
2022-12-14T23:43:11.589Z,56.27
2022-12-14T23:45:56.991Z,56.63
2022-12-14T23:48:42.859Z,56.29
2022-12-14T23:51:28.284Z,56.38
2022-12-14T23:54:13.716Z,56.29
2022-12-14T23:56:59.238Z,56.00
2022-12-14T23:59:44.627Z,56.12
